Time;durP1;ratioP1;P1;durP2;ratioP2;P2;SDS_P1;SDS_P2;PMS_P1;PMS_P2;Temp;Humidity;BMP_temperature;BMP_pressure;BME280_temperature;BME280_humidity;BME280_pressure;Samples;Min_cycle;Max_cycle;Signal;HPM_P1;HPM_P2
2022/04/16 00:02:00;;;;;;;17.02;11.43;;;8.30;99.90;;;;;;5011629;28;20061;-71
2022/04/16 00:04:27;;;;;;;18.40;12.30;;;8.30;99.90;;;;;;5051174;22;20053;-72
2022/04/16 00:06:53;;;;;;;18.83;11.70;;;8.30;99.90;;;;;;4996859;28;20041;-72
2022/04/16 00:09:19;;;;;;;22.48;12.15;;;8.30;99.90;;;;;;4992931;28;20201;-73
2022/04/16 00:11:45;;;;;;;16.48;11.35;;;8.40;99.90;;;;;;4998002;28;20065;-72
2022/04/16 00:14:10;;;;;;;15.25;11.27;;;8.40;99.90;;;;;;4997861;28;20069;-72
2022/04/16 00:16:36;;;;;;;18.80;12.18;;;8.40;99.90;;;;;;4993842;28;20053;-73
2022/04/16 00:19:02;;;;;;;17.83;11.73;;;8.40;99.90;;;;;;4995330;28;20205;-72
2022/04/16 00:21:27;;;;;;;16.33;11.45;;;8.30;99.90;;;;;;4996248;28;20053;-72
2022/04/16 00:23:53;;;;;;;14.75;11.35;;;8.40;99.90;;;;;;4999416;28;20049;-73
2022/04/16 00:26:21;;;;;;;15.57;11.75;;;8.40;99.90;;;;;;4997219;28;20244;-72
2022/04/16 00:28:48;;;;;;;15.35;11.85;;;8.40;99.90;;;;;;5000255;28;20333;-72
2022/04/16 00:31:14;;;;;;;18.08;11.68;;;8.40;99.90;;;;;;4992990;28;20291;-72
2022/04/16 00:33:40;;;;;;;17.95;12.30;;;8.40;99.90;;;;;;4995340;28;20053;-72
2022/04/16 00:36:06;;;;;;;18.55;12.38;;;8.40;99.90;;;;;;4996652;28;20054;-72
2022/04/16 00:38:32;;;;;;;15.80;11.70;;;8.40;99.90;;;;;;4997051;28;20038;-72
2022/04/16 00:41:00;;;;;;;18.13;12.38;;;8.40;99.90;;;;;;4998186;28;20156;-72
2022/04/16 00:43:29;;;;;;;21.38;12.10;;;8.40;99.90;;;;;;4975584;28;20070;-73
2022/04/16 00:45:56;;;;;;;16.92;12.50;;;8.40;99.90;;;;;;4991778;28;20104;-72
2022/04/16 00:48:23;;;;;;;16.80;11.65;;;8.40;99.90;;;;;;4991127;28;20101;-74
2022/04/16 00:50:50;;;;;;;17.77;11.68;;;8.40;99.90;;;;;;4991749;28;20456;-73
2022/04/16 00:53:17;;;;;;;15.32;11.98;;;8.50;99.90;;;;;;4999637;28;20104;-73
2022/04/16 00:55:43;;;;;;;18.02;11.02;;;8.40;99.90;;;;;;4995208;28;20057;-73
2022/04/16 00:58:09;;;;;;;17.23;12.10;;;8.50;99.90;;;;;;4995958;28;20501;-72
2022/04/16 01:00:34;;;;;;;23.10;13.10;;;8.40;99.90;;;;;;4995047;28;20125;-73
2022/04/16 01:03:00;;;;;;;15.48;11.82;;;8.50;99.90;;;;;;4987925;28;20100;-72
2022/04/16 01:05:26;;;;;;;16.08;10.82;;;8.40;99.90;;;;;;4977081;28;20524;-73
2022/04/16 01:07:57;;;;;;;16.05;11.55;;;8.40;99.90;;;;;;4979227;28;20050;-73
2022/04/16 01:10:28;;;;;;;16.95;11.90;;;8.50;99.90;;;;;;4976767;28;20051;-73
2022/04/16 01:12:55;;;;;;;16.13;11.25;;;8.50;99.90;;;;;;4978572;28;20042;-73
2022/04/16 01:15:20;;;;;;;18.40;12.00;;;8.40;99.90;;;;;;4979037;28;22453;-73
2022/04/16 01:17:47;;;;;;;19.48;12.95;;;8.50;99.90;;;;;;4981507;28;20077;-73
2022/04/16 01:20:15;;;;;;;17.63;11.88;;;8.50;99.90;;;;;;4976446;28;20039;-73
2022/04/16 01:22:40;;;;;;;17.23;12.40;;;8.50;99.90;;;;;;4980201;28;20058;-73
2022/04/16 01:25:07;;;;;;;21.08;12.75;;;8.50;99.90;;;;;;4986412;28;20077;-71
2022/04/16 01:27:35;;;;;;;17.30;12.10;;;8.50;99.90;;;;;;4977660;28;20058;-72
2022/04/16 01:30:03;;;;;;;17.33;12.90;;;8.50;99.90;;;;;;4985852;28;20042;-73
2022/04/16 01:32:29;;;;;;;17.48;12.60;;;8.40;99.90;;;;;;4979029;28;20042;-73
2022/04/16 01:34:55;;;;;;;18.83;13.32;;;8.50;99.90;;;;;;4972809;28;20402;-72
2022/04/16 01:37:22;;;;;;;18.02;12.30;;;8.40;99.90;;;;;;4984266;28;20046;-72
2022/04/16 01:39:48;;;;;;;19.33;12.55;;;8.50;99.90;;;;;;4980347;28;20050;-72
2022/04/16 01:42:14;;;;;;;17.92;11.70;;;8.40;99.90;;;;;;4983968;28;20046;-72
2022/04/16 01:44:42;;;;;;;17.33;12.68;;;8.40;99.90;;;;;;4982308;28;20094;-72
2022/04/16 01:47:10;;;;;;;18.10;12.23;;;8.40;99.90;;;;;;4983231;28;20130;-73
2022/04/16 01:49:36;;;;;;;17.45;12.65;;;8.40;99.90;;;;;;4979221;28;20087;-73
2022/04/16 01:52:03;;;;;;;19.45;12.80;;;8.40;99.90;;;;;;4983639;28;20051;-73
2022/04/16 01:54:28;;;;;;;17.58;12.57;;;8.40;99.90;;;;;;4979181;28;20046;-73
2022/04/16 01:56:54;;;;;;;22.45;13.48;;;8.40;99.90;;;;;;4983246;28;20488;-72
2022/04/16 01:59:20;;;;;;;18.55;12.60;;;8.40;99.90;;;;;;4972738;28;20137;-72
2022/04/16 02:01:45;;;;;;;18.10;13.18;;;8.40;99.90;;;;;;4981183;28;20383;-74
2022/04/16 02:04:11;;;;;;;19.45;14.18;;;8.40;99.90;;;;;;4976036;28;20050;-74
2022/04/16 02:06:36;;;;;;;21.55;14.63;;;8.40;99.90;;;;;;4997123;28;20045;-73
2022/04/16 02:09:03;;;;;;;20.75;14.80;;;8.40;99.90;;;;;;4976893;28;20053;-73
2022/04/16 02:11:30;;;;;;;22.38;15.10;;;8.30;99.90;;;;;;4965646;28;20528;-73
2022/04/16 02:13:56;;;;;;;20.33;14.95;;;8.30;99.90;;;;;;4961452;28;20042;-71
2022/04/16 02:16:21;;;;;;;19.70;14.30;;;8.40;99.90;;;;;;4959724;28;20049;-74
2022/04/16 02:18:47;;;;;;;22.80;14.73;;;8.40;99.90;;;;;;4960424;28;20058;-72
2022/04/16 02:21:12;;;;;;;20.70;14.75;;;8.40;99.90;;;;;;4948283;28;20052;-72
2022/04/16 02:23:38;;;;;;;25.65;14.68;;;8.40;99.90;;;;;;4975540;28;20061;-73
2022/04/16 02:26:06;;;;;;;24.08;15.68;;;8.30;99.90;;;;;;4991421;28;20508;-72
2022/04/16 02:28:32;;;;;;;20.58;14.57;;;8.30;99.90;;;;;;4979737;28;20510;-72
2022/04/16 02:30:58;;;;;;;22.48;16.13;;;8.40;99.90;;;;;;4983688;28;20110;-73
2022/04/16 02:33:23;;;;;;;22.40;15.13;;;8.40;99.90;;;;;;4981702;28;20053;-73
2022/04/16 02:35:49;;;;;;;27.52;16.27;;;8.30;99.90;;;;;;4998694;28;20045;-73
2022/04/16 02:38:15;;;;;;;25.88;16.77;;;8.40;99.90;;;;;;4971335;28;20050;-73
2022/04/16 02:40:40;;;;;;;24.63;16.70;;;8.40;99.90;;;;;;4971826;28;20043;-72
2022/04/16 02:43:06;;;;;;;24.75;18.08;;;8.30;99.90;;;;;;4973485;28;20125;-72
2022/04/16 02:48:16;;;;;;;26.90;17.17;;;8.30;99.90;;;;;;4952678;28;20042;-72
2022/04/16 02:50:42;;;;;;;27.50;18.10;;;8.30;99.90;;;;;;4985177;28;20096;-72
2022/04/16 02:53:08;;;;;;;25.90;18.77;;;8.30;99.90;;;;;;4995602;28;20196;-72
2022/04/16 02:55:33;;;;;;;26.98;18.42;;;8.30;99.90;;;;;;4996477;28;20192;-73
2022/04/16 02:57:59;;;;;;;27.90;18.70;;;8.30;99.90;;;;;;4971884;28;20053;-73
2022/04/16 03:00:26;;;;;;;25.33;18.65;;;8.30;99.90;;;;;;4998469;28;20046;-73
2022/04/16 03:02:53;;;;;;;26.25;17.98;;;8.30;99.90;;;;;;5000428;28;20508;-74
2022/04/16 03:05:18;;;;;;;26.67;17.55;;;8.30;99.90;;;;;;5005535;28;20049;-73
2022/04/16 03:07:45;;;;;;;29.67;19.20;;;8.30;99.90;;;;;;4999930;28;20413;-73
2022/04/16 03:10:10;;;;;;;26.42;18.77;;;8.30;99.90;;;;;;5003756;28;20493;-73
2022/04/16 03:12:53;;;;;;;29.95;20.45;;;8.30;99.90;;;;;;4993084;28;20758;-73
2022/04/16 03:18:04;;;;;;;26.98;19.05;;;8.30;99.90;;;;;;4976188;28;20265;-72
2022/04/16 03:20:30;;;;;;;28.50;19.50;;;8.30;99.90;;;;;;4981318;28;20523;-73
2022/04/16 03:22:57;;;;;;;27.67;18.95;;;8.30;99.90;;;;;;4980188;28;20043;-72
2022/04/16 03:25:23;;;;;;;28.33;19.45;;;8.20;99.90;;;;;;4998263;28;20042;-72
2022/04/16 03:27:49;;;;;;;29.73;19.83;;;8.30;99.90;;;;;;4977127;28;20148;-72
2022/04/16 03:30:15;;;;;;;30.27;20.25;;;8.20;99.90;;;;;;4995741;28;20057;-72
2022/04/16 03:32:42;;;;;;;34.95;20.90;;;8.20;99.90;;;;;;4991359;28;20160;-73
2022/04/16 03:35:09;;;;;;;27.33;19.85;;;8.20;99.90;;;;;;4999848;28;20264;-73
2022/04/16 03:37:37;;;;;;;31.10;21.15;;;8.20;99.90;;;;;;4997885;28;20050;-73
2022/04/16 03:40:05;;;;;;;29.33;20.60;;;8.10;99.90;;;;;;5000074;28;20503;-74
2022/04/16 03:42:31;;;;;;;26.85;19.05;;;8.10;99.90;;;;;;4981149;28;20042;-74
2022/04/16 03:44:58;;;;;;;30.48;21.17;;;8.10;99.90;;;;;;4995886;28;20532;-73
2022/04/16 03:47:24;;;;;;;29.58;19.00;;;8.10;99.90;;;;;;4979976;28;20055;-73
2022/04/16 03:49:51;;;;;;;30.48;20.95;;;8.00;99.90;;;;;;4996604;28;20064;-73
2022/04/16 03:52:17;;;;;;;29.42;19.15;;;8.00;99.90;;;;;;4983584;28;20045;-73
2022/04/16 04:00:12;;;;;;;33.50;22.08;;;7.90;99.90;;;;;;4994453;28;20038;-72
2022/04/16 04:02:38;;;;;;;32.47;21.65;;;7.90;99.90;;;;;;4989275;28;20100;-72
2022/04/16 04:05:06;;;;;;;35.40;22.73;;;7.90;99.90;;;;;;4965781;28;20043;-72
2022/04/16 04:07:32;;;;;;;37.60;22.55;;;7.80;99.90;;;;;;4958733;28;20058;-73
2022/04/16 04:09:58;;;;;;;34.67;21.48;;;7.80;99.90;;;;;;4973338;28;20432;-73
2022/04/16 04:12:24;;;;;;;36.30;21.73;;;7.80;99.90;;;;;;4955024;28;20508;-73
2022/04/16 04:14:49;;;;;;;34.50;21.95;;;7.70;99.90;;;;;;4961833;28;20039;-73
2022/04/16 04:17:15;;;;;;;33.15;21.80;;;7.60;99.90;;;;;;4955884;28;20509;-73
2022/04/16 04:19:43;;;;;;;37.47;23.13;;;7.60;99.90;;;;;;4962467;28;20043;-73
2022/04/16 04:22:10;;;;;;;33.83;23.33;;;7.50;99.90;;;;;;4956812;28;20047;-73
2022/04/16 04:24:37;;;;;;;33.78;22.90;;;7.40;99.90;;;;;;4961598;28;20051;-74
2022/04/16 04:27:04;;;;;;;37.88;22.88;;;7.40;99.90;;;;;;4957706;28;20050;-73
2022/04/16 04:29:30;;;;;;;38.85;23.27;;;7.30;99.90;;;;;;4961435;28;20055;-72
2022/04/16 04:31:56;;;;;;;35.60;21.95;;;7.30;99.90;;;;;;4964739;28;20666;-73
2022/04/16 04:34:22;;;;;;;34.70;22.75;;;7.20;99.90;;;;;;4965974;28;20066;-75
2022/04/16 04:36:48;;;;;;;35.10;23.50;;;7.20;99.90;;;;;;4968055;28;20077;-74
2022/04/16 04:39:14;;;;;;;37.08;23.15;;;7.10;99.90;;;;;;4962378;28;20063;-72
2022/04/16 04:41:43;;;;;;;34.13;22.20;;;7.10;99.90;;;;;;4960904;28;20250;-73
2022/04/16 04:44:13;;;;;;;40.53;24.85;;;7.10;99.90;;;;;;4958671;28;20039;-72
2022/04/16 04:46:40;;;;;;;40.97;24.83;;;7.10;99.90;;;;;;4963410;28;20402;-73
2022/04/16 04:49:08;;;;;;;40.88;24.95;;;7.10;99.90;;;;;;4956857;28;20561;-72
2022/04/16 04:51:41;;;;;;;35.22;23.15;;;7.10;99.90;;;;;;4961901;28;20482;-73
2022/04/16 04:54:08;;;;;;;42.15;25.63;;;7.10;99.90;;;;;;4961840;28;20113;-73
2022/04/16 04:56:37;;;;;;;37.17;24.00;;;7.10;99.90;;;;;;4971694;28;20053;-73
2022/04/16 04:59:03;;;;;;;39.38;25.40;;;7.10;99.90;;;;;;4962686;28;20062;-72
2022/04/16 05:01:28;;;;;;;40.45;23.67;;;7.10;99.90;;;;;;4962729;28;20050;-73
2022/04/16 05:03:54;;;;;;;38.60;25.27;;;7.10;99.90;;;;;;4942265;28;20375;-73
2022/04/16 05:06:20;;;;;;;39.80;24.65;;;7.00;99.90;;;;;;4978284;28;20049;-73
2022/04/16 05:08:45;;;;;;;40.50;25.67;;;7.10;99.90;;;;;;4965010;28;20046;-73
2022/04/16 05:11:12;;;;;;;36.53;24.35;;;7.10;99.90;;;;;;4976782;28;20404;-73
2022/04/16 05:13:37;;;;;;;45.50;26.27;;;7.10;99.90;;;;;;4983561;28;20046;-73
2022/04/16 05:16:03;;;;;;;42.58;25.48;;;7.10;99.90;;;;;;4979172;28;20043;-73
2022/04/16 05:18:29;;;;;;;41.53;25.50;;;7.10;99.90;;;;;;4982200;28;20062;-73
2022/04/16 05:20:55;;;;;;;41.83;25.98;;;7.10;99.90;;;;;;4981750;28;20848;-74
2022/04/16 05:23:20;;;;;;;42.88;26.70;;;7.20;99.90;;;;;;4983775;28;20679;-74
2022/04/16 05:25:46;;;;;;;41.10;27.50;;;7.20;99.90;;;;;;4976947;28;20122;-74
2022/04/16 05:28:12;;;;;;;41.60;25.63;;;7.20;99.90;;;;;;4994483;28;20133;-73
2022/04/16 05:30:44;;;;;;;38.03;25.27;;;7.30;99.90;;;;;;4979574;28;20037;-72
2022/04/16 05:34:18;;;;;;;40.70;26.23;;;7.30;99.90;;;;;;4965472;28;20050;-74
2022/04/16 05:36:03;;;;;;;42.13;25.70;;;7.40;99.90;;;;;;4956287;28;20725;-73
2022/04/16 05:38:29;;;;;;;42.03;25.17;;;7.50;99.90;;;;;;4985190;28;20039;-73
2022/04/16 05:40:54;;;;;;;41.25;27.40;;;7.50;99.90;;;;;;4976153;28;20042;-72
2022/04/16 05:43:20;;;;;;;38.45;25.95;;;7.60;99.90;;;;;;4988324;28;20058;-73
2022/04/16 05:45:46;;;;;;;42.55;27.65;;;7.70;99.90;;;;;;4986212;28;20049;-73
2022/04/16 05:48:12;;;;;;;41.60;27.88;;;7.70;99.90;;;;;;4993065;28;20463;-74
2022/04/16 05:50:39;;;;;;;43.70;27.83;;;7.80;99.90;;;;;;4978930;28;20097;-73
2022/04/16 05:53:10;;;;;;;40.33;27.25;;;7.90;99.90;;;;;;4984132;28;20080;-73
2022/04/16 05:55:37;;;;;;;38.83;25.63;;;7.90;99.90;;;;;;4983391;28;20050;-75
2022/04/16 05:58:03;;;;;;;42.33;26.80;;;8.00;99.90;;;;;;4979341;28;20054;-73
2022/04/16 06:00:28;;;;;;;43.60;26.77;;;8.00;99.90;;;;;;4959425;28;20141;-73
2022/04/16 06:02:56;;;;;;;42.78;27.83;;;8.10;99.90;;;;;;4963129;28;20046;-74
2022/04/16 06:05:22;;;;;;;42.30;28.08;;;8.00;99.90;;;;;;4997971;28;20099;-73
2022/04/16 06:07:48;;;;;;;40.53;27.27;;;8.10;99.90;;;;;;5003130;28;20046;-73
2022/04/16 06:10:14;;;;;;;47.60;29.02;;;8.10;99.90;;;;;;4999306;28;20512;-74
2022/04/16 06:12:42;;;;;;;39.80;27.75;;;8.20;99.90;;;;;;4982874;28;20054;-74
2022/04/16 06:15:08;;;;;;;44.35;29.38;;;8.20;99.90;;;;;;4995565;28;20036;-73
2022/04/16 06:17:35;;;;;;;46.13;29.80;;;8.20;99.90;;;;;;4997711;28;20039;-75
2022/04/16 06:20:04;;;;;;;44.90;30.00;;;8.30;99.90;;;;;;4991386;28;20298;-72
2022/04/16 06:22:31;;;;;;;44.58;29.75;;;8.30;99.90;;;;;;5004153;28;20054;-73
2022/04/16 06:24:56;;;;;;;42.85;29.45;;;8.30;99.90;;;;;;4987027;28;20054;-73
2022/04/16 06:27:22;;;;;;;43.50;29.65;;;8.40;99.90;;;;;;5000339;28;20046;-74
2022/04/16 06:29:48;;;;;;;46.03;29.35;;;8.40;99.90;;;;;;4984169;28;20041;-74
2022/04/16 06:32:14;;;;;;;44.40;29.75;;;8.50;99.90;;;;;;4972413;28;20048;-74
2022/04/16 06:34:40;;;;;;;41.30;27.65;;;8.50;99.90;;;;;;4996626;28;20069;-74
2022/04/16 06:37:05;;;;;;;40.60;27.90;;;8.60;99.90;;;;;;4998984;28;20588;-74
2022/04/16 06:39:31;;;;;;;41.65;28.40;;;8.70;99.90;;;;;;4985107;28;20049;-73
2022/04/16 06:41:57;;;;;;;37.95;26.77;;;8.70;99.90;;;;;;4994179;28;20592;-74
2022/04/16 06:44:23;;;;;;;39.60;28.15;;;8.70;99.90;;;;;;4996306;28;20316;-74
2022/04/16 06:46:50;;;;;;;37.97;26.35;;;8.70;99.90;;;;;;4993205;28;20486;-73
2022/04/16 06:49:16;;;;;;;40.97;28.20;;;8.80;99.90;;;;;;4975646;28;20388;-73
2022/04/16 06:51:42;;;;;;;44.95;29.15;;;8.70;99.90;;;;;;4976993;28;20093;-74
2022/04/16 06:54:08;;;;;;;36.92;25.02;;;8.70;99.90;;;;;;4993997;28;20050;-74
2022/04/16 06:56:34;;;;;;;36.08;24.88;;;8.80;99.90;;;;;;4977584;28;20061;-73
2022/04/16 06:59:00;;;;;;;34.63;22.50;;;8.80;99.90;;;;;;4977168;28;20054;-72
2022/04/16 07:01:26;;;;;;;29.10;20.73;;;8.80;99.90;;;;;;4993818;28;20564;-72
2022/04/16 07:03:52;;;;;;;30.17;21.30;;;8.80;99.90;;;;;;4995407;28;20056;-74
2022/04/16 07:06:17;;;;;;;28.38;20.77;;;8.80;99.90;;;;;;4974835;28;20047;-73
2022/04/16 07:08:43;;;;;;;28.48;17.92;;;8.80;99.90;;;;;;4975364;28;20046;-74
2022/04/16 07:11:09;;;;;;;25.52;16.83;;;8.70;99.90;;;;;;4963497;28;20549;-72
2022/04/16 07:13:34;;;;;;;25.27;15.80;;;8.70;99.90;;;;;;4956761;28;20378;-74
2022/04/16 07:16:00;;;;;;;25.77;15.65;;;8.80;99.90;;;;;;4971788;28;20042;-73
2022/04/16 07:18:26;;;;;;;23.73;15.32;;;8.90;99.90;;;;;;4973885;28;20043;-74
2022/04/16 07:20:51;;;;;;;23.85;16.08;;;9.00;99.90;;;;;;4969881;28;20050;-74
2022/04/16 07:23:17;;;;;;;22.33;14.77;;;9.10;99.90;;;;;;4973224;28;20061;-74
2022/04/16 07:25:43;;;;;;;22.95;14.90;;;9.20;99.90;;;;;;4976453;28;20047;-72
2022/04/16 07:28:11;;;;;;;23.17;15.85;;;9.30;99.90;;;;;;4971941;28;20105;-73
2022/04/16 07:30:36;;;;;;;24.30;15.13;;;9.40;99.90;;;;;;4942640;28;20046;-73
2022/04/16 07:33:02;;;;;;;20.88;14.07;;;9.40;99.90;;;;;;4952567;28;20495;-73
2022/04/16 07:35:28;;;;;;;22.83;14.57;;;9.60;99.90;;;;;;4954882;28;20046;-73
2022/04/16 07:37:57;;;;;;;19.73;14.23;;;9.90;99.90;;;;;;4952242;28;20122;-73
2022/04/16 07:40:24;;;;;;;22.23;14.02;;;10.00;99.90;;;;;;4951558;28;20074;-73
2022/04/16 07:42:50;;;;;;;18.98;12.95;;;10.00;99.90;;;;;;4961550;28;20087;-72
2022/04/16 07:45:21;;;;;;;22.85;13.07;;;10.10;99.90;;;;;;4969852;28;20077;-73
2022/04/16 07:47:47;;;;;;;18.48;12.68;;;10.00;99.90;;;;;;4970856;28;20042;-74
2022/04/16 07:50:12;;;;;;;19.42;14.02;;;10.00;99.90;;;;;;4971158;28;20509;-73
2022/04/16 07:52:38;;;;;;;19.95;13.77;;;10.10;99.90;;;;;;4969662;28;20058;-74
2022/04/16 07:55:04;;;;;;;17.58;12.85;;;10.10;99.90;;;;;;4960129;28;20195;-72
2022/04/16 07:57:30;;;;;;;19.55;13.35;;;10.30;99.90;;;;;;4956091;28;20059;-74
2022/04/16 07:59:56;;;;;;;20.33;13.23;;;10.40;99.90;;;;;;4951889;28;20284;-73
2022/04/16 08:02:21;;;;;;;16.63;12.02;;;10.50;99.90;;;;;;4971779;28;20050;-73
2022/04/16 08:04:47;;;;;;;21.35;12.88;;;10.60;99.90;;;;;;4971156;28;20461;-73
2022/04/16 08:07:12;;;;;;;20.90;12.45;;;10.70;99.90;;;;;;4973136;28;20097;-73
2022/04/16 08:09:38;;;;;;;19.10;12.35;;;10.70;99.90;;;;;;4975030;28;20047;-73
2022/04/16 08:12:04;;;;;;;18.35;11.88;;;10.70;99.90;;;;;;4960795;28;20178;-72
2022/04/16 08:14:30;;;;;;;20.75;14.05;;;10.80;99.90;;;;;;4951885;28;20309;-72
2022/04/16 08:16:56;;;;;;;17.48;12.40;;;10.90;99.90;;;;;;4955904;28;20130;-73
2022/04/16 08:19:23;;;;;;;18.80;10.43;;;11.00;99.90;;;;;;4956716;28;20066;-72
2022/04/16 08:21:48;;;;;;;17.17;11.07;;;11.10;99.90;;;;;;4972076;28;20038;-73
2022/04/16 08:24:38;;;;;;;18.08;11.88;;;11.20;99.90;;;;;;4971062;28;20049;-74
2022/04/16 08:27:00;;;;;;;16.85;10.93;;;11.30;99.90;;;;;;4958713;28;20047;-73
2022/04/16 08:29:26;;;;;;;15.57;9.95;;;11.30;99.90;;;;;;4974798;28;20516;-77
2022/04/16 08:31:51;;;;;;;19.05;11.07;;;11.40;99.90;;;;;;4967852;28;20050;-74
2022/04/16 08:34:17;;;;;;;15.77;10.48;;;11.50;99.90;;;;;;4971463;28;20043;-74
2022/04/16 08:36:43;;;;;;;13.75;10.13;;;11.50;99.90;;;;;;4973463;28;20201;-75
2022/04/16 08:39:08;;;;;;;15.70;10.10;;;11.70;99.90;;;;;;4974271;28;20057;-72
2022/04/16 08:41:35;;;;;;;17.08;11.00;;;11.80;99.90;;;;;;4973244;28;20520;-73
2022/04/16 08:44:02;;;;;;;16.20;10.82;;;11.80;99.90;;;;;;4974131;28;20244;-73
2022/04/16 08:46:30;;;;;;;14.32;10.02;;;12.00;99.90;;;;;;4974907;28;20042;-73
2022/04/16 08:48:58;;;;;;;13.93;8.93;;;12.10;99.90;;;;;;4961312;28;20465;-70
2022/04/16 08:51:25;;;;;;;15.80;10.00;;;12.20;99.90;;;;;;4963576;28;20069;-67
2022/04/16 08:53:51;;;;;;;13.85;9.95;;;12.20;99.90;;;;;;4961667;28;20162;-67
2022/04/16 08:56:17;;;;;;;13.93;9.35;;;12.20;99.90;;;;;;4973626;28;20049;-67
2022/04/16 08:58:43;;;;;;;12.85;9.27;;;12.20;99.90;;;;;;4976335;28;20278;-69
2022/04/16 09:01:09;;;;;;;12.95;8.13;;;12.20;99.90;;;;;;4980836;28;20053;-68
2022/04/16 09:03:36;;;;;;;14.13;8.82;;;12.30;99.90;;;;;;4973910;28;20050;-68
2022/04/16 09:06:07;;;;;;;15.95;8.60;;;12.30;99.90;;;;;;4982526;28;20045;-68
2022/04/16 09:08:35;;;;;;;12.88;8.68;;;12.30;99.90;;;;;;4975041;28;20050;-68
2022/04/16 09:11:27;;;;;;;13.65;8.77;;;12.30;99.90;;;;;;4971527;28;20552;-68
2022/04/16 09:13:53;;;;;;;11.20;8.20;;;12.40;99.90;;;;;;4976141;28;20405;-68
2022/04/16 09:16:20;;;;;;;11.52;8.00;;;12.40;99.90;;;;;;4953043;28;20038;-68
2022/04/16 09:18:54;;;;;;;13.30;8.95;;;12.50;99.90;;;;;;4958130;28;20043;-69
2022/04/16 09:21:24;;;;;;;13.05;8.70;;;12.50;99.90;;;;;;4950299;28;20046;-68
2022/04/16 09:23:56;;;;;;;13.10;8.00;;;12.70;99.90;;;;;;4953262;28;20039;-66
2022/04/16 09:26:40;;;;;;;11.88;8.15;;;12.80;99.90;;;;;;4958725;28;20097;-66
2022/04/16 09:29:08;;;;;;;13.35;8.20;;;12.80;99.90;;;;;;4954571;28;20077;-66
2022/04/16 09:31:35;;;;;;;13.57;8.68;;;12.90;99.90;;;;;;4961406;28;20050;-65
2022/04/16 09:34:01;;;;;;;11.48;7.60;;;13.00;99.90;;;;;;4972167;28;20042;-69
2022/04/16 09:36:28;;;;;;;12.65;8.48;;;13.10;99.90;;;;;;4969888;28;20238;-64
2022/04/16 09:39:04;;;;;;;11.95;7.95;;;13.10;99.90;;;;;;4972723;28;20188;-73
2022/04/16 09:41:31;;;;;;;10.57;6.90;;;13.30;99.90;;;;;;4969462;28;20264;-74
2022/04/16 09:43:58;;;;;;;11.15;7.30;;;13.50;99.90;;;;;;4971258;28;20053;-76
2022/04/16 09:46:27;;;;;;;11.90;7.88;;;13.50;99.90;;;;;;4972364;28;20074;-74
2022/04/16 09:49:02;;;;;;;10.50;7.30;;;13.70;99.90;;;;;;4968684;28;20138;-75
2022/04/16 09:51:36;;;;;;;10.82;7.40;;;14.00;99.90;;;;;;4960242;28;20054;-78
2022/04/16 09:54:05;;;;;;;10.15;7.07;;;14.10;99.90;;;;;;4973999;28;20042;-74
2022/04/16 09:56:36;;;;;;;9.45;6.40;;;14.20;99.90;;;;;;4981434;28;20073;-74
2022/04/16 09:59:05;;;;;;;12.27;6.82;;;14.30;99.90;;;;;;4985706;28;20054;-75
2022/04/16 10:01:35;;;;;;;11.90;7.45;;;14.40;99.90;;;;;;4976094;28;20050;-76
2022/04/16 10:04:01;;;;;;;9.25;6.45;;;14.50;99.90;;;;;;4970757;28;20050;-76
2022/04/16 10:06:28;;;;;;;12.43;7.30;;;14.60;99.90;;;;;;4974475;28;20499;-76
2022/04/16 10:08:56;;;;;;;8.35;5.50;;;14.80;99.90;;;;;;4972559;28;20050;-76
2022/04/16 10:11:42;;;;;;;9.75;6.57;;;14.70;99.90;;;;;;4958155;28;20050;-76
2022/04/16 10:14:19;;;;;;;11.65;6.85;;;14.80;99.90;;;;;;4970574;28;20582;-76
2022/04/16 10:16:57;;;;;;;8.15;6.10;;;14.80;99.90;;;;;;4973153;28;20061;-76
2022/04/16 10:19:23;;;;;;;9.20;5.93;;;14.90;99.90;;;;;;4978090;28;20505;-74
2022/04/16 10:21:54;;;;;;;7.93;5.47;;;14.80;99.90;;;;;;4981339;28;20061;-77
2022/04/16 10:24:26;;;;;;;6.65;4.40;;;14.90;99.90;;;;;;4976762;28;20046;-76
2022/04/16 10:27:02;;;;;;;7.55;4.85;;;14.90;99.90;;;;;;4975022;28;20413;-76
2022/04/16 10:29:33;;;;;;;6.03;3.92;;;14.80;99.90;;;;;;4974913;28;20051;-76
2022/04/16 10:31:59;;;;;;;5.80;4.05;;;14.80;99.90;;;;;;4973064;28;20072;-75
2022/04/16 10:34:30;;;;;;;6.57;4.47;;;14.80;99.90;;;;;;4971170;28;20560;-76
2022/04/16 10:36:56;;;;;;;6.28;4.05;;;14.70;99.90;;;;;;4973348;28;20576;-76
2022/04/16 10:39:31;;;;;;;4.95;2.80;;;14.80;99.90;;;;;;4969754;28;20130;-75
2022/04/16 10:41:59;;;;;;;8.68;2.75;;;14.80;99.90;;;;;;4972167;28;20050;-81
2022/04/16 10:44:26;;;;;;;4.60;2.97;;;15.00;99.90;;;;;;4970423;28;20129;-75
2022/04/16 10:46:53;;;;;;;4.97;2.80;;;15.20;99.90;;;;;;4973098;28;20092;-78
2022/04/16 10:49:22;;;;;;;5.53;3.17;;;15.20;99.90;;;;;;4971145;28;20042;-78
2022/04/16 10:51:50;;;;;;;7.53;2.75;;;15.10;99.90;;;;;;4967798;28;20048;-73
2022/04/16 10:54:32;;;;;;;5.80;2.50;;;15.10;99.90;;;;;;4973129;28;20052;-71
2022/04/16 10:56:58;;;;;;;4.32;2.42;;;15.10;99.90;;;;;;4971330;28;20494;-73
2022/04/16 10:59:38;;;;;;;4.10;2.40;;;15.00;99.90;;;;;;4975624;28;20130;-71
2022/04/16 11:02:22;;;;;;;5.07;2.80;;;14.90;99.90;;;;;;4971122;28;20050;-70
2022/04/16 11:05:09;;;;;;;4.20;3.00;;;15.00;99.90;;;;;;4976640;28;20541;-72
2022/04/16 11:07:39;;;;;;;3.47;2.20;;;15.10;99.90;;;;;;4970470;28;20776;-74
2022/04/16 11:10:08;;;;;;;3.53;1.85;;;15.10;99.90;;;;;;4966988;28;20122;-78
2022/04/16 11:12:36;;;;;;;3.65;2.20;;;15.20;99.90;;;;;;4978926;28;20133;-73
2022/04/16 11:15:06;;;;;;;4.25;2.40;;;15.20;98.50;;;;;;4975991;28;20054;-78
2022/04/16 11:17:32;;;;;;;6.22;2.60;;;15.00;98.80;;;;;;4968381;28;20116;-75
2022/04/16 11:20:04;;;;;;;5.28;2.28;;;14.90;97.90;;;;;;4974209;28;20777;-74
2022/04/16 11:22:30;;;;;;;3.58;1.98;;;15.00;99.00;;;;;;4968594;28;20043;-75
2022/04/16 11:24:58;;;;;;;4.78;1.90;;;15.10;98.80;;;;;;4968496;28;20058;-73
2022/04/16 11:35:59;;;;;;;3.72;1.60;;;15.40;96.80;;;;;;4967678;28;20051;-73
2022/04/16 11:38:30;;;;;;;2.80;1.52;;;15.40;96.40;;;;;;4972393;28;20105;-70
2022/04/16 11:40:59;;;;;;;3.95;1.35;;;15.30;96.10;;;;;;4962192;28;20078;-76
2022/04/16 11:43:25;;;;;;;2.90;1.80;;;15.20;95.90;;;;;;4952293;28;20073;-69
2022/04/16 11:45:51;;;;;;;3.63;1.83;;;15.20;95.60;;;;;;4964535;28;20051;-68
2022/04/16 11:48:17;;;;;;;2.60;1.73;;;15.10;95.10;;;;;;4963503;28;20053;-69
2022/04/16 11:50:44;;;;;;;2.20;1.30;;;15.10;94.40;;;;;;4966510;28;20151;-68
2022/04/16 11:53:13;;;;;;;2.90;1.75;;;15.20;94.70;;;;;;4969781;28;20169;-69
2022/04/16 11:55:52;;;;;;;2.63;1.50;;;15.30;94.00;;;;;;4968967;28;20065;-76
2022/04/16 11:58:26;;;;;;;3.78;1.70;;;15.30;93.80;;;;;;4961156;28;21697;-81
2022/04/16 12:00:55;;;;;;;3.75;1.98;;;15.30;93.30;;;;;;4964458;28;20410;-76
2022/04/16 12:03:22;;;;;;;4.15;1.80;;;15.40;93.30;;;;;;4955650;28;20082;-77
2022/04/16 12:05:50;;;;;;;2.65;1.80;;;15.50;93.70;;;;;;4947804;28;20114;-69
2022/04/16 12:08:19;;;;;;;5.40;2.05;;;15.50;93.60;;;;;;4950705;28;20521;-74
2022/04/16 12:10:46;;;;;;;6.90;2.17;;;15.60;93.80;;;;;;4953729;28;20165;-77
2022/04/16 12:13:13;;;;;;;2.63;1.83;;;15.70;93.90;;;;;;4947711;28;20051;-76
2022/04/16 12:15:40;;;;;;;3.17;1.70;;;15.90;93.20;;;;;;4946558;28;20065;-75
2022/04/16 12:18:22;;;;;;;3.08;1.73;;;15.90;92.20;;;;;;4951048;28;20044;-75
2022/04/16 12:20:51;;;;;;;3.20;1.67;;;15.90;91.40;;;;;;4949328;28;20050;-75
2022/04/16 12:23:24;;;;;;;2.80;1.73;;;16.00;91.60;;;;;;4952041;28;20046;-77
2022/04/16 12:26:01;;;;;;;3.20;1.90;;;15.90;90.70;;;;;;4952461;28;20055;-76
2022/04/16 12:28:28;;;;;;;4.50;1.98;;;15.80;91.10;;;;;;4959811;28;20038;-77
2022/04/16 12:30:54;;;;;;;4.45;2.10;;;15.70;91.20;;;;;;4954113;28;20083;-77
2022/04/16 12:33:25;;;;;;;2.72;1.85;;;15.60;90.60;;;;;;4957597;28;20518;-76
2022/04/16 12:35:55;;;;;;;4.35;2.00;;;15.70;90.60;;;;;;4975039;28;20094;-76
2022/04/16 12:38:23;;;;;;;3.67;1.60;;;15.70;89.10;;;;;;4957146;28;20109;-77
2022/04/16 12:40:49;;;;;;;4.03;2.05;;;15.50;86.10;;;;;;4954273;28;20497;-75
2022/04/16 12:43:16;;;;;;;18.20;7.15;;;15.60;87.30;;;;;;4944034;28;20074;-75
2022/04/16 12:45:42;;;;;;;3.75;2.30;;;15.60;85.60;;;;;;4952434;28;20122;-76
2022/04/16 12:48:08;;;;;;;3.58;1.80;;;15.70;84.80;;;;;;4961991;28;20125;-77
2022/04/16 12:50:35;;;;;;;2.50;1.60;;;15.60;82.20;;;;;;4965773;28;20158;-77
2022/04/16 12:53:01;;;;;;;3.00;1.60;;;15.60;82.70;;;;;;4956714;28;20360;-76
2022/04/16 12:55:28;;;;;;;4.15;1.45;;;15.80;82.10;;;;;;4962197;28;20047;-76
2022/04/16 12:57:55;;;;;;;3.08;1.80;;;15.80;77.40;;;;;;4966848;28;20410;-76
2022/04/16 13:00:20;;;;;;;3.45;1.50;;;15.60;77.60;;;;;;4959336;28;20085;-76